Latest Weather Observations for Middle Point

IDD60801

Issued at 9:31 am CST Saturday 6 February 2016 (issued every 30 minutes, with the page automatically refreshed every 10 minutes)

About weather observations | Map of weather stations | Latest weather observations for NT | Other Formats
Station Details ID: 014041 Name: MIDDLE POINT Lat: -12.61 Lon: 131.30 Height: 14.1 m
Data from the previous 72 hours. | See also: Recent months at Middle Point
Date/Time
CST
Temp
°C
App
Temp
°C
Dew
Point
Rel
Hum
%
Delta-T
°C
Wind Press
QNH
hPa
Press
MSL
hPa
Rain
since 9 am
mm
Dir
 
Spd
km/h
Gust
km/h
Spd
kts
Gust
kts
06/09:30am 27.9 30.5 23.9 79 2.8 W 17 24 9 13 1009.0 1008.9 0.0
06/09:00am 27.4 31.0 24.3 83 2.1 W 13 24 7 13 1009.1 1009.0 5.0
06/08:30am 26.9 30.0 24.2 85 1.9 WSW 15 22 8 12 1008.9 1008.8 5.0
06/08:00am 26.3 29.8 24.2 88 1.4 WSW 13 20 7 11 1008.3 1008.2 5.0
06/07:30am 25.9 29.5 23.8 88 1.4 WSW 11 19 6 10 1007.9 1007.8 5.0
06/07:00am 25.6 28.0 23.7 89 1.3 W 17 20 9 11 1007.4 1007.3 5.0
06/06:30am 25.7 29.0 23.9 90 1.2 W 13 24 7 13 1007.1 1007.0 5.0
06/06:00am 26.0 30.9 24.4 91 1.1 WSW 6 7 3 4 1006.8 1006.7 5.0
06/05:30am 25.9 31.9 24.3 91 1.1 CALM 0 0 0 0 1006.4 1006.3 5.0
06/05:00am 25.9 31.9 24.3 91 1.1 CALM 0 0 0 0 1006.2 1006.1 5.0
06/04:30am 25.9 31.9 24.3 91 1.1 CALM 0 0 0 0 1006.0 1005.9 5.0
06/04:00am 25.8 31.8 24.2 91 1.1 CALM 0 0 0 0 1006.0 1005.9 5.0
06/03:30am 25.7 31.6 24.1 91 1.1 CALM 0 0 0 0 1006.2 1006.1 5.0
06/03:00am 25.6 31.4 24.0 91 1.1 CALM 0 0 0 0 1006.3 1006.2 5.0
06/02:30am 25.5 31.0 24.1 92 1.0 NW 2 4 1 2 1006.8 1006.7 5.0
06/02:00am 25.6 31.2 24.2 92 1.0 NNW 2 4 1 2 1007.1 1007.0 5.0
06/01:30am 25.6 30.7 24.0 91 1.1 WNW 4 6 2 3 1007.2 1007.1 5.0
06/01:00am 25.7 31.3 24.3 92 1.0 W 2 6 1 3 1007.6 1007.5 5.0
06/12:30am 25.8 31.0 24.2 91 1.1 W 4 6 2 3 1007.6 1007.5 5.0
06/12:00am 25.8 31.4 24.2 91 1.1 SSW 2 6 1 3 1007.9 1007.8 5.0
 
Date/Time
CST
Temp
°C
App
Temp
°C
Dew
Point
Rel
Hum
%
Delta-T
°C
Wind Press
QNH
hPa
Press
MSL
hPa
Rain
since 9 am
mm
Dir
 
Spd
km/h
Gust
km/h
Spd
kts
Gust
kts
05/11:30pm 25.8 31.4 24.2 91 1.1 WSW 2 4 1 2 1007.7 1007.6 5.0
05/11:00pm 25.7 30.8 24.1 91 1.1 WSW 4 6 2 3 1008.0 1007.9 5.0
05/10:30pm 25.9 31.5 24.3 91 1.1 SW 2 2 1 1 1008.3 1008.2 5.0
05/10:00pm 25.9 30.8 24.3 91 1.1 SSW 6 9 3 5 1008.3 1008.2 5.0
05/09:30pm 26.1 31.0 24.7 92 1.0 W 7 9 4 5 1008.0 1007.9 5.0
05/09:00pm 26.0 30.9 24.4 91 1.1 NNW 6 9 3 5 1007.7 1007.6 5.0
05/08:30pm 25.9 31.2 24.3 91 1.1 NW 4 6 2 3 1007.6 1007.5 5.0
05/08:00pm 25.9 30.8 24.3 91 1.1 WNW 6 7 3 4 1007.3 1007.2 4.8
05/07:30pm 25.8 30.5 24.0 90 1.2 W 6 7 3 4 1007.1 1007.0 4.8
05/07:00pm 26.0 31.1 24.0 89 1.4 N 4 6 2 3 1007.0 1006.9 4.8
05/06:30pm 25.9 30.9 23.8 88 1.4 NNW 4 6 2 3 1007.2 1007.1 4.6
05/06:00pm 25.9 30.5 23.8 88 1.4 NE 6 9 3 5 1006.8 1006.7 4.4
05/05:30pm 25.9 30.1 24.1 90 1.2 N 9 15 5 8 1006.0 1005.9 4.4
05/05:00pm 25.9 27.1 23.2 85 1.8 WSW 22 30 12 16 1005.6 1005.5 1.2
05/04:30pm 29.2 30.5 23.4 71 4.0 WNW 22 30 12 16 1004.9 1004.8 0.4
05/04:00pm 30.3 32.3 24.0 69 4.4 NW 20 28 11 15 1004.1 1004.0 0.4
05/03:30pm 35.0 38.8 22.7 49 8.5 WSW 7 15 4 8 1004.3 1004.2 0.4
05/03:00pm 34.5 38.5 23.8 53 7.5 S 9 13 5 7 1004.1 1004.0 0.4
05/02:30pm 34.3 39.2 24.3 56 7.0 SSW 6 13 3 7 1004.6 1004.5 0.4
05/02:00pm 33.7 38.0 23.7 56 7.0 S 7 15 4 8 1005.1 1005.0 0.4
05/01:30pm 33.0 37.5 23.9 59 6.4 SSE 7 13 4 7 1005.9 1005.8 0.4
05/01:00pm 32.7 38.1 24.5 62 5.8 W 4 9 2 5 1006.5 1006.4 0.4
05/12:30pm 32.0 37.0 23.8 62 5.7 WNW 4 9 2 5 1007.0 1006.9 0.4
05/12:00pm 31.9 37.4 24.7 65 5.1 WSW 4 9 2 5 1007.3 1007.2 0.4
05/11:30am 32.3 37.9 25.4 67 4.9 S 6 9 3 5 1007.7 1007.6 0.4
05/11:00am 31.0 35.4 24.4 68 4.6 S 9 13 5 7 1008.1 1008.0 0.4
05/10:30am 30.4 34.6 24.1 69 4.4 S 9 15 5 8 1008.6 1008.5 0.4
05/10:00am 29.9 34.9 24.8 74 3.6 SSW 7 11 4 6 1008.9 1008.8 0.4
05/09:30am 29.0 34.8 25.2 80 2.7 SSW 4 7 2 4 1009.0 1008.9 0.0
05/09:00am 27.5 33.0 24.7 85 2.0 SSW 4 6 2 3 1008.9 1008.8 7.4
05/08:30am 26.9 32.7 25.1 90 1.3 SW 4 6 2 3 1008.9 1008.8 7.4
05/08:00am 26.2 32.0 24.6 91 1.1 W 2 4 1 2 1008.6 1008.5 7.4
05/07:30am 25.6 31.6 24.2 92 1.0 CALM 0 0 0 0 1008.2 1008.1 7.4
05/07:00am 25.5 31.4 24.1 92 1.0 CALM 0 0 0 0 1007.8 1007.7 7.4
05/06:30am 25.3 31.1 23.9 92 1.0 CALM 0 0 0 0 1007.2 1007.1 7.4
05/06:00am 25.3 31.1 23.9 92 1.0 CALM 0 0 0 0 1006.8 1006.7 7.4
05/05:30am 25.4 30.9 24.0 92 1.0 SSE 2 2 1 1 1006.7 1006.6 7.4
05/05:00am 25.5 31.4 24.1 92 1.0 CALM 0 0 0 0 1006.8 1006.7 7.4
05/04:30am 25.5 31.4 24.1 92 1.0 CALM 0 0 0 0 1006.9 1006.8 7.4
05/04:00am 25.6 30.8 24.2 92 1.0 S 4 6 2 3 1007.1 1007.0 7.4
05/03:30am 25.6 30.8 24.2 92 1.0 S 4 4 2 2 1007.2 1007.1 7.2
05/03:00am 25.7 31.0 24.3 92 1.0 ESE 4 6 2 3 1007.5 1007.4 7.2
05/02:30am 25.7 31.0 24.3 92 1.0 ESE 4 6 2 3 1008.0 1007.9 7.0
05/02:00am 25.7 30.6 24.3 92 1.0 ESE 6 7 3 4 1008.2 1008.1 7.0
05/01:30am 25.7 31.0 24.3 92 1.0 SE 4 6 2 3 1008.5 1008.4 7.0
05/01:00am 25.7 31.0 24.3 92 1.0 SSE 4 4 2 2 1008.9 1008.8 7.0
05/12:30am 25.6 30.7 24.0 91 1.1 SSE 4 6 2 3 1009.2 1009.1 7.0
05/12:00am 25.5 30.5 23.9 91 1.1 ESE 4 6 2 3 1009.4 1009.3 6.4
 
Date/Time
CST
Temp
°C
App
Temp
°C
Dew
Point
Rel
Hum
%
Delta-T
°C
Wind Press
QNH
hPa
Press
MSL
hPa
Rain
since 9 am
mm
Dir
 
Spd
km/h
Gust
km/h
Spd
kts
Gust
kts
04/11:30pm 25.8 31.1 24.4 92 1.0 E 4 6 2 3 1009.5 1009.4 5.8
04/11:00pm 25.7 30.8 24.1 91 1.1 SW 4 6 2 3 1009.6 1009.5 4.2
04/10:30pm 25.8 31.4 24.2 91 1.1 S 2 6 1 3 1009.4 1009.3 3.8
04/10:00pm 25.7 30.5 24.1 91 1.1 S 6 9 3 5 1009.2 1009.1 3.6
04/09:30pm 25.7 29.8 23.9 90 1.2 SSE 9 13 5 7 1009.2 1009.1 3.4
04/09:00pm 26.1 30.9 24.5 91 1.1 SSE 7 13 4 7 1008.8 1008.7 3.0
04/08:30pm 26.3 31.4 24.7 91 1.1 S 6 9 3 5 1008.5 1008.4 2.6
04/08:00pm 26.3 31.8 24.7 91 1.1 SSE 4 6 2 3 1008.1 1008.0 2.0
04/07:30pm 26.3 31.7 24.5 90 1.2 SSW 4 6 2 3 1007.4 1007.3 1.2
04/07:00pm 26.2 29.6 24.1 88 1.4 SSE 13 17 7 9 1007.3 1007.2 0.4
04/06:30pm 28.0 31.9 24.2 80 2.6 SW 11 28 6 15 1006.7 1006.6 0.2
04/06:00pm 29.0 34.5 24.6 77 3.1 W 4 6 2 3 1005.9 1005.8 0.2
04/05:30pm 29.7 33.6 23.6 69 4.2 WNW 9 13 5 7 1005.5 1005.4 0.2
04/05:00pm 30.4 34.7 24.3 70 4.3 WNW 9 15 5 8 1005.3 1005.2 0.2
04/04:30pm 31.0 34.4 23.4 64 5.3 WNW 11 15 6 8 1004.9 1004.8 0.2
04/04:00pm 31.7 34.2 23.2 60 5.9 NW 15 22 8 12 1004.7 1004.6 0.2
04/03:30pm 33.5 35.8 24.1 58 6.6 NW 19 22 10 12 1004.7 1004.6 0.2
04/03:00pm 32.3 35.5 24.3 62 5.6 NNW 15 22 8 12 1005.1 1005.0 0.2
04/02:30pm 33.3 37.1 24.7 60 6.1 NW 13 22 7 12 1005.5 1005.4 0.2
04/02:00pm 32.4 36.3 24.2 62 5.7 NNW 11 20 6 11 1006.0 1005.9 0.2
04/01:30pm 32.6 36.6 23.8 59 6.1 WNW 9 17 5 9 1006.5 1006.4 0.2
04/01:00pm 32.2 36.1 24.3 63 5.5 WNW 11 17 6 9 1007.2 1007.1 0.2
04/12:30pm 31.5 35.5 24.4 66 5.0 WNW 11 17 6 9 1007.8 1007.7 0.2
04/12:00pm 31.0 36.0 25.4 72 4.0 NW 9 13 5 7 1008.3 1008.2 0.2
04/11:30am 30.6 35.0 25.0 72 3.9 W 11 17 6 9 1008.8 1008.7 0.0
04/11:00am 30.2 35.1 25.9 78 3.1 W 11 17 6 9 1009.1 1009.0 0.0
04/10:30am 29.7 35.2 26.1 81 2.6 WNW 9 13 5 7 1009.4 1009.3 0.0
04/10:00am 29.2 35.1 26.2 84 2.1 WNW 7 11 4 6 1009.4 1009.3 0.0
04/09:30am 28.5 34.2 25.9 86 1.8 WNW 7 9 4 5 1009.4 1009.3 0.0
04/09:00am 28.0 34.0 26.0 89 1.4 W 6 7 3 4 1009.4 1009.3 2.6
04/08:30am 27.4 33.6 25.8 91 1.1 NW 4 6 2 3 1009.6 1009.5 2.6
04/08:00am 26.9 33.7 25.5 92 1.0 CALM 0 0 0 0 1009.7 1009.6 2.6
04/07:30am 26.5 32.3 25.1 92 1.0 NNW 4 6 2 3 1009.7 1009.6 2.6
04/07:00am 26.2 31.8 24.8 92 1.0 NE 4 4 2 2 1009.3 1009.2 2.4
04/06:30am 26.3 32.6 24.7 91 1.1 CALM 0 0 0 0 1008.9 1008.8 2.4
04/06:00am 26.4 32.5 25.0 92 1.0 ENE 2 4 1 2 1008.8 1008.7 2.4
04/05:30am 26.5 32.9 24.9 91 1.1 CALM 0 0 0 0 1008.5 1008.4 2.4
04/05:00am 26.3 32.6 24.7 91 1.1 CALM 0 0 0 0 1008.1 1008.0 2.2
04/04:30am 26.4 32.7 24.8 91 1.1 CALM 0 0 0 0 1007.7 1007.6 2.0
04/04:00am 26.4 32.4 24.8 91 1.1 WNW 2 2 1 1 1007.5 1007.4 2.0
04/03:30am 26.4 32.0 24.8 91 1.1 WNW 4 4 2 2 1007.5 1007.4 2.0
04/03:00am 26.5 31.8 24.9 91 1.1 W 6 7 3 4 1007.9 1007.8 2.0
04/02:30am 26.5 32.1 24.9 91 1.1 WNW 4 4 2 2 1007.9 1007.8 1.6
04/02:00am 26.5 32.5 24.9 91 1.1 WSW 2 2 1 1 1008.0 1007.9 1.6
04/01:30am 26.4 32.0 24.8 91 1.1 WNW 4 4 2 2 1008.2 1008.1 1.6
04/01:00am 26.2 31.3 24.6 91 1.1 WNW 6 6 3 3 1008.4 1008.3 1.6
04/12:30am 26.3 31.3 24.5 90 1.2 W 6 7 3 4 1008.8 1008.7 1.4
04/12:00am 26.5 32.1 24.3 88 1.5 W 2 4 1 2 1009.1 1009.0 1.2
 
Date/Time
CST
Temp
°C
App
Temp
°C
Dew
Point
Rel
Hum
%
Delta-T
°C
Wind Press
QNH
hPa
Press
MSL
hPa
Rain
since 9 am
mm
Dir
 
Spd
km/h
Gust
km/h
Spd
kts
Gust
kts
03/11:30pm 26.7 31.5 24.5 88 1.5 WSW 7 11 4 6 1009.5 1009.4 0.8
03/11:00pm 27.1 33.1 25.5 91 1.1 WSW 4 6 2 3 1009.6 1009.5 0.8
03/10:30pm 26.8 33.0 25.2 91 1.1 WNW 2 6 1 3 1009.4 1009.3 0.8
03/10:00pm 26.6 32.6 24.8 90 1.3 NW 2 2 1 1 1009.0 1008.9 0.8
03/09:30pm 26.6 32.6 24.8 90 1.3 N 2 4 1 2 1008.7 1008.6 0.8
03/09:00pm 26.7 32.7 24.9 90 1.3 WNW 2 2 1 1 1008.4 1008.3 0.6
03/08:30pm 26.8 33.1 24.8 89 1.4 CALM 0 0 0 0 1008.0 1007.9 0.6
03/08:00pm 26.7 32.6 24.7 89 1.4 WNW 2 4 1 2 1007.8 1007.7 0.6
03/07:30pm 26.7 31.7 24.5 88 1.5 W 6 7 3 4 1007.4 1007.3 0.6
03/07:00pm 27.1 31.1 24.4 85 1.9 W 11 17 6 9 1007.2 1007.1 0.4
03/06:30pm 27.3 32.5 25.1 88 1.5 NW 7 11 4 6 1007.0 1006.9 0.2
03/06:00pm 27.6 32.5 24.6 84 2.1 N 7 9 4 5 1006.4 1006.3 0.2
03/05:30pm 28.0 32.5 24.6 82 2.4 NW 9 13 5 7 1005.8 1005.7 0.2
03/05:00pm 29.2 32.8 24.3 75 3.4 WNW 13 20 7 11 1005.5 1005.4 0.2
03/04:30pm 30.3 33.2 24.4 70 4.1 W 17 26 9 14 1005.3 1005.2 0.2
03/04:00pm 30.7 33.4 24.1 68 4.6 W 17 26 9 14 1005.2 1005.1 0.2
03/03:30pm 31.2 33.5 24.1 66 5.0 W 19 26 10 14 1005.5 1005.4 0.2
03/03:00pm 31.6 34.8 25.0 68 4.7 W 17 24 9 13 1005.5 1005.4 0.2
03/02:30pm 32.8 34.6 24.3 61 6.0 WNW 22 28 12 15 1005.9 1005.8 0.2
03/02:00pm 33.9 35.6 25.3 60 6.1 W 26 35 14 19 1006.2 1006.1 0.2
03/01:30pm 33.5 36.3 25.2 62 5.9 WNW 20 32 11 17 1006.4 1006.3 0.2
03/01:00pm 32.6 35.4 25.2 65 5.2 NW 20 28 11 15 1007.0 1006.9 0.2
03/12:30pm 32.8 36.1 25.1 64 5.5 WNW 17 24 9 13 1007.4 1007.3 0.2
03/12:00pm 32.6 36.5 25.4 66 5.1 W 15 20 8 11 1007.9 1007.8 0.2
03/11:30am 31.8 35.3 24.9 67 4.9 WNW 15 20 8 11 1008.2 1008.1 0.2
03/11:00am 31.5 35.5 25.1 69 4.5 WNW 13 17 7 9 1008.6 1008.5 0.2
03/10:30am 30.9 36.3 25.5 73 3.8 WSW 7 15 4 8 1008.9 1008.8 0.2
03/10:00am 30.3 36.8 26.2 79 2.9 W 4 11 2 6 1009.0 1008.9 0.2

Other Formats:

Comma delimited format used in spreadsheet applications
http://www.bom.gov.au/fwo/IDD60801/IDD60801.95121.axf

JavaScript Object Notation format (JSON) in row-major order
http://www.bom.gov.au/fwo/IDD60801/IDD60801.95121.json